Lake McDonald, Montana
Current Conditions -  °F | °C
As of 7:55 AM on Thursday 23 Oct 2014 (Local Time) from KGPI Reporting Station
Light Rain Light Rain  
Wind Chill: 45°   Ceiling: 5500
Heat Index: 49°   Visibility: 10mi
Dew Point: 45°   Wind: 9mph
Humidity: 86%   Direction: 170°S
Pressure: 29.81"   Gusts: NA
Location:  48.62°N, 113.87°W
Report Text: KGPI 231355Z 17008KT 10SM -RA SCT046 BKN055 OVC075 09/07 A2981 RMK AO2 RAB1258 SLP098 P0002 T00940072
Loading
Personal Weather Stations






























Interactive Weather Map
Tropical Storm Tracking
New forecast layout! Learn more

10-Day Weather Forecast

Advertisements
Track Severe Weather on mobile